createdAt,value
2022-10-24T00:01:40.635Z,0.50
2022-10-24T00:04:08.436Z,0.40
2022-10-24T00:06:35.950Z,0.45
2022-10-24T00:09:03.747Z,0.40
2022-10-24T00:11:31.114Z,0.55
2022-10-24T00:13:59.617Z,0.40
2022-10-24T00:16:32.421Z,0.38
2022-10-24T00:18:59.701Z,0.50
2022-10-24T00:21:27.141Z,0.40
2022-10-24T00:23:54.669Z,0.35
2022-10-24T00:26:22.395Z,0.45
2022-10-24T00:28:50.315Z,0.85
2022-10-24T00:31:19.809Z,0.43
2022-10-24T00:33:48.010Z,0.50
2022-10-24T00:36:18.943Z,0.45
2022-10-24T00:38:46.558Z,0.60
2022-10-24T00:41:21.057Z,0.52
2022-10-24T00:43:51.131Z,0.40
2022-10-24T00:46:20.623Z,0.63
2022-10-24T00:48:52.087Z,0.38
2022-10-24T00:51:24.917Z,0.32
2022-10-24T00:54:01.525Z,0.40
2022-10-24T00:56:34.682Z,0.32
2022-10-24T00:59:05.171Z,0.50
2022-10-24T01:01:34.231Z,0.32
2022-10-24T01:04:02.010Z,0.28
2022-10-24T01:06:47.709Z,0.30
2022-10-24T01:09:36.803Z,0.28
2022-10-24T01:12:24.791Z,0.60
2022-10-24T01:15:17.002Z,0.65
2022-10-24T01:18:03.534Z,0.40
2022-10-24T01:20:37.098Z,0.75
2022-10-24T01:23:32.089Z,0.50
2022-10-24T01:26:37.560Z,0.50
2022-10-24T01:29:05.845Z,0.20
2022-10-24T01:31:59.356Z,0.30
2022-10-24T01:34:53.391Z,0.40
2022-10-24T01:37:33.943Z,0.60
2022-10-24T01:40:03.635Z,0.60
2022-10-24T01:42:36.387Z,0.60
2022-10-24T01:45:06.078Z,0.30
2022-10-24T01:47:40.829Z,0.40
2022-10-24T01:50:14.356Z,0.52
2022-10-24T01:52:45.644Z,0.40
2022-10-24T01:55:16.058Z,0.20
2022-10-24T01:57:43.788Z,0.40
2022-10-24T02:00:22.987Z,0.40
2022-10-24T02:03:08.883Z,0.40
2022-10-24T02:05:45.299Z,0.20
2022-10-24T02:08:16.901Z,0.63
2022-10-24T02:10:55.252Z,0.40
2022-10-24T02:14:03.663Z,0.40
2022-10-24T02:16:34.456Z,0.30
2022-10-24T02:19:02.294Z,0.30
2022-10-24T02:21:44.498Z,0.50
2022-10-24T02:24:22.132Z,0.35
2022-10-24T02:27:26.249Z,0.40
2022-10-24T02:29:57.814Z,0.50
2022-10-24T02:32:31.931Z,0.40
2022-10-24T02:35:04.487Z,0.30
2022-10-24T02:37:33.283Z,0.50
2022-10-24T02:40:02.202Z,0.65
2022-10-24T02:42:30.920Z,0.52
2022-10-24T02:44:58.563Z,0.40
2022-10-24T02:47:27.272Z,0.28
2022-10-24T02:49:55.089Z,0.38
2022-10-24T02:52:24.173Z,0.40
2022-10-24T02:54:52.068Z,0.50
2022-10-24T02:57:22.027Z,0.50
2022-10-24T02:59:49.712Z,0.30
2022-10-24T03:02:17.505Z,0.40
2022-10-24T03:04:45.135Z,0.70
2022-10-24T03:07:12.996Z,0.47
2022-10-24T03:09:40.125Z,0.38
2022-10-24T03:12:07.978Z,0.50
2022-10-24T03:14:38.099Z,0.50
2022-10-24T03:17:05.676Z,0.40
2022-10-24T03:19:36.376Z,0.30
2022-10-24T03:22:07.147Z,0.30
2022-10-24T03:24:43.774Z,0.70
2022-10-24T03:27:12.243Z,0.30
2022-10-24T03:29:40.028Z,0.63
2022-10-24T03:32:07.975Z,0.40
2022-10-24T03:34:35.738Z,0.57
2022-10-24T03:37:03.697Z,0.20
2022-10-24T03:39:31.491Z,0.22
2022-10-24T03:41:59.636Z,0.45
2022-10-24T03:44:29.126Z,0.40
2022-10-24T03:46:56.586Z,0.60
2022-10-24T03:49:24.206Z,0.65
2022-10-24T03:51:51.841Z,0.30
2022-10-24T03:54:19.716Z,0.90
2022-10-24T03:56:49.476Z,0.35
2022-10-24T03:59:17.075Z,0.40
2022-10-24T04:01:44.859Z,0.40
2022-10-24T04:04:14.905Z,0.20
2022-10-24T04:09:10.422Z,0.50
2022-10-24T04:11:38.161Z,0.20
2022-10-24T04:14:05.762Z,0.28
2022-10-24T04:16:36.560Z,0.93
2022-10-24T04:19:06.785Z,0.90
2022-10-24T04:21:34.191Z,0.50
2022-10-24T04:24:01.646Z,0.63
2022-10-24T04:26:29.197Z,0.70
2022-10-24T04:28:57.580Z,0.70
2022-10-24T04:31:27.336Z,1.67
2022-10-24T04:33:55.023Z,1.40
2022-10-24T04:36:22.638Z,0.30
2022-10-24T04:38:50.345Z,1.20
2022-10-24T04:41:18.358Z,1.00
2022-10-24T04:43:45.695Z,1.42
2022-10-24T04:46:13.017Z,0.55
2022-10-24T04:48:40.844Z,0.70
2022-10-24T04:51:08.356Z,0.95
2022-10-24T04:53:35.785Z,0.40
2022-10-24T04:56:03.430Z,0.77
2022-10-24T04:58:31.074Z,0.80
2022-10-24T05:00:58.701Z,1.30
2022-10-24T05:03:26.316Z,0.45
2022-10-24T05:05:53.829Z,0.93
2022-10-24T05:08:23.585Z,1.27
2022-10-24T05:10:51.277Z,1.23
2022-10-24T05:13:18.944Z,1.48
2022-10-24T05:15:46.306Z,1.15
2022-10-24T05:18:13.670Z,2.20
2022-10-24T05:20:43.794Z,1.10
2022-10-24T05:25:43.320Z,1.38
2022-10-24T05:28:11.409Z,1.60
2022-10-24T05:30:39.201Z,0.80
2022-10-24T05:33:09.382Z,1.95
2022-10-24T05:35:36.956Z,5.57
2022-10-24T05:38:04.228Z,2.55
2022-10-24T05:40:31.946Z,3.58
2022-10-24T05:42:59.506Z,1.27
2022-10-24T05:45:27.059Z,2.00
2022-10-24T05:47:54.612Z,2.72
2022-10-24T05:50:24.229Z,3.60
2022-10-24T05:52:51.971Z,2.20
2022-10-24T05:55:19.709Z,1.70
2022-10-24T05:57:48.567Z,2.95
2022-10-24T06:00:17.113Z,1.60
2022-10-24T06:05:14.834Z,2.17
2022-10-24T06:07:43.980Z,3.25
2022-10-24T06:10:12.388Z,3.45
2022-10-24T06:12:43.193Z,4.30
2022-10-24T06:15:12.822Z,7.38
2022-10-24T06:17:40.490Z,5.70
2022-10-24T06:20:08.627Z,7.18
2022-10-24T06:22:36.447Z,9.15
2022-10-24T06:25:05.600Z,7.80
2022-10-24T06:27:33.649Z,5.70
2022-10-24T06:30:01.228Z,8.63
2022-10-24T06:32:29.502Z,7.68
2022-10-24T06:34:57.363Z,9.25
2022-10-24T06:37:25.281Z,8.40
2022-10-24T06:39:53.050Z,10.38
2022-10-24T06:42:20.827Z,11.15
2022-10-24T06:44:48.666Z,13.70
2022-10-24T06:47:18.264Z,9.82
2022-10-24T06:49:45.974Z,7.57
2022-10-24T06:52:14.085Z,8.05
2022-10-24T06:54:41.751Z,10.50
2022-10-24T06:57:09.513Z,8.98
2022-10-24T06:59:40.788Z,9.45
2022-10-24T07:02:14.472Z,10.18
2022-10-24T07:04:42.359Z,8.32
2022-10-24T07:07:18.418Z,8.82
2022-10-24T07:09:46.326Z,13.68
2022-10-24T07:12:14.694Z,12.93
2022-10-24T07:14:42.746Z,11.40
2022-10-24T07:17:10.797Z,11.00
2022-10-24T07:19:38.916Z,10.88
2022-10-24T07:22:06.828Z,10.50
2022-10-24T07:24:34.682Z,11.13
2022-10-24T07:27:02.470Z,9.52
2022-10-24T07:29:31.503Z,10.57
2022-10-24T07:31:59.730Z,8.10
2022-10-24T07:34:27.381Z,8.98
2022-10-24T07:36:55.207Z,16.83
2022-10-24T07:39:22.837Z,13.00
2022-10-24T07:41:50.422Z,12.32
2022-10-24T07:44:18.034Z,12.20
2022-10-24T07:46:45.769Z,8.15
2022-10-24T07:49:13.610Z,11.02
2022-10-24T07:51:46.776Z,12.77
2022-10-24T07:54:14.499Z,12.88
2022-10-24T07:56:42.147Z,7.82
2022-10-24T07:59:29.786Z,12.13
2022-10-24T08:02:00.293Z,11.25
2022-10-24T08:04:29.270Z,14.80
2022-10-24T08:06:58.129Z,10.10
2022-10-24T08:09:26.755Z,9.68
2022-10-24T08:11:56.851Z,7.53
2022-10-24T08:16:52.075Z,11.02
2022-10-24T08:19:20.090Z,11.00
2022-10-24T08:21:48.270Z,12.07
2022-10-24T08:24:16.457Z,10.60
2022-10-24T08:26:44.202Z,8.23
2022-10-24T08:29:15.015Z,12.82
2022-10-24T08:31:43.779Z,9.20
2022-10-24T08:34:13.604Z,13.02
2022-10-24T08:36:41.394Z,11.05
2022-10-24T08:39:11.581Z,16.80
2022-10-24T08:41:39.260Z,9.93
2022-10-24T08:44:42.314Z,13.00
2022-10-24T08:47:17.929Z,15.05
2022-10-24T08:49:50.449Z,13.10
2022-10-24T08:52:18.410Z,12.65
2022-10-24T08:54:47.137Z,14.48
2022-10-24T08:57:25.278Z,13.15
2022-10-24T09:00:08.943Z,15.45
2022-10-24T09:02:39.952Z,8.70
2022-10-24T09:05:31.584Z,11.98
2022-10-24T09:08:24.319Z,13.73
2022-10-24T09:10:59.540Z,14.25
2022-10-24T09:13:32.953Z,11.68
2022-10-24T09:16:00.899Z,11.15
2022-10-24T09:18:41.441Z,8.35
2022-10-24T09:21:10.857Z,10.93
2022-10-24T09:23:38.795Z,9.45
2022-10-24T09:26:28.797Z,8.45
2022-10-24T09:28:57.349Z,6.15
2022-10-24T09:31:26.982Z,8.40
2022-10-24T09:33:56.854Z,9.45
2022-10-24T09:36:30.992Z,13.18
2022-10-24T09:38:59.660Z,8.85
2022-10-24T09:41:33.419Z,5.78
2022-10-24T09:44:02.058Z,5.80
2022-10-24T09:46:39.774Z,7.13
2022-10-24T09:49:14.701Z,7.18
2022-10-24T09:52:07.441Z,12.05
2022-10-24T09:54:36.959Z,9.13
2022-10-24T09:59:47.059Z,9.23
2022-10-24T10:02:20.809Z,7.53
2022-10-24T10:04:49.861Z,11.25
2022-10-24T10:07:27.796Z,8.55
2022-10-24T10:09:58.967Z,8.63
2022-10-24T10:12:37.448Z,5.68
2022-10-24T10:15:23.571Z,7.28
2022-10-24T10:17:58.268Z,7.72
2022-10-24T10:20:29.073Z,8.52
2022-10-24T10:22:56.914Z,9.68
2022-10-24T10:25:32.592Z,7.80
2022-10-24T10:28:02.992Z,6.57
2022-10-24T10:30:33.586Z,7.30
2022-10-24T10:33:24.926Z,7.65
2022-10-24T10:36:11.019Z,6.65
2022-10-24T10:38:50.821Z,10.13
2022-10-24T10:41:18.515Z,10.55
2022-10-24T10:44:06.465Z,9.82
2022-10-24T10:47:02.248Z,5.97
2022-10-24T10:49:40.272Z,8.20
2022-10-24T10:52:13.147Z,8.40
2022-10-24T10:54:58.821Z,7.00
2022-10-24T10:57:54.715Z,7.47
2022-10-24T11:00:24.965Z,5.45
2022-10-24T11:03:16.377Z,6.13
2022-10-24T11:05:44.856Z,8.48
2022-10-24T11:08:52.477Z,6.80
2022-10-24T11:11:31.325Z,5.63
2022-10-24T11:14:23.518Z,4.50
2022-10-24T11:16:57.038Z,4.63
2022-10-24T11:19:34.846Z,8.48
2022-10-24T11:22:05.145Z,3.63
2022-10-24T11:24:47.493Z,6.47
2022-10-24T11:30:03.020Z,8.05
2022-10-24T11:32:32.944Z,6.03
2022-10-24T11:37:50.808Z,6.30
2022-10-24T11:40:21.785Z,8.07
2022-10-24T11:43:20.269Z,5.93
2022-10-24T11:46:01.904Z,6.03
2022-10-24T11:48:53.446Z,4.03
2022-10-24T11:51:47.393Z,6.22
2022-10-24T11:54:24.207Z,7.28
2022-10-24T11:56:58.951Z,7.03
2022-10-24T11:59:26.644Z,5.40
2022-10-24T12:01:54.331Z,5.57
2022-10-24T12:05:01.069Z,9.52
2022-10-24T12:07:28.724Z,4.93
2022-10-24T12:10:08.711Z,5.03
2022-10-24T12:12:36.376Z,3.60
2022-10-24T12:15:07.332Z,4.80
2022-10-24T12:18:08.574Z,4.45
2022-10-24T12:20:36.363Z,3.22
2022-10-24T12:23:04.747Z,4.57
2022-10-24T12:25:38.234Z,6.18
2022-10-24T12:28:25.533Z,8.07
2022-10-24T12:31:22.361Z,4.78
2022-10-24T12:34:20.069Z,7.85
2022-10-24T12:37:06.105Z,8.50
2022-10-24T12:39:54.837Z,4.72
2022-10-24T12:42:26.149Z,4.68
2022-10-24T12:45:02.893Z,7.30
2022-10-24T12:47:44.756Z,7.82
2022-10-24T12:50:24.830Z,6.13
2022-10-24T12:53:16.563Z,7.25
2022-10-24T12:55:44.137Z,5.32
2022-10-24T12:58:32.267Z,5.72
2022-10-24T13:01:01.579Z,5.22
2022-10-24T13:03:41.559Z,4.68
2022-10-24T13:06:27.100Z,5.80
2022-10-24T13:09:09.235Z,6.18
2022-10-24T13:11:55.884Z,6.03
2022-10-24T13:14:55.923Z,7.10
2022-10-24T13:17:50.656Z,6.22
2022-10-24T13:22:51.746Z,4.47
2022-10-24T13:25:21.276Z,7.97
2022-10-24T13:28:19.654Z,6.65
2022-10-24T13:30:49.765Z,5.88
2022-10-24T13:33:29.721Z,4.32
2022-10-24T13:36:09.752Z,6.05
2022-10-24T13:38:49.874Z,3.58
2022-10-24T13:41:32.008Z,4.57
2022-10-24T13:44:25.374Z,2.60
2022-10-24T13:47:11.463Z,4.25
2022-10-24T13:49:47.015Z,5.75
2022-10-24T13:52:40.689Z,5.18
2022-10-24T13:55:39.422Z,2.38
2022-10-24T13:58:07.145Z,6.57
2022-10-24T14:00:41.168Z,3.25
2022-10-24T14:03:16.863Z,16.27
2022-10-24T14:05:53.593Z,2.55
2022-10-24T14:08:59.667Z,4.40
2022-10-24T14:11:32.310Z,3.92
2022-10-24T14:14:06.524Z,2.53
2022-10-24T14:16:35.440Z,2.45
2022-10-24T14:19:25.618Z,2.75
2022-10-24T14:21:57.617Z,2.95
2022-10-24T14:24:25.334Z,4.28
2022-10-24T14:26:56.939Z,3.15
2022-10-24T14:29:31.326Z,3.38
2022-10-24T14:32:09.622Z,3.03
2022-10-24T14:34:39.353Z,3.50
2022-10-24T14:37:25.070Z,3.88
2022-10-24T14:39:52.605Z,2.55
2022-10-24T14:42:20.246Z,5.18
2022-10-24T14:44:48.042Z,2.60
2022-10-24T14:47:21.384Z,3.60
2022-10-24T14:49:49.291Z,3.83
2022-10-24T14:52:29.496Z,2.53
2022-10-24T14:55:02.605Z,1.92
2022-10-24T14:57:33.785Z,3.08
2022-10-24T15:00:07.528Z,4.07
2022-10-24T15:02:44.997Z,2.65
2022-10-24T15:05:22.513Z,2.90
2022-10-24T15:08:26.281Z,1.83
2022-10-24T15:11:08.412Z,1.63
2022-10-24T15:13:51.016Z,2.78
2022-10-24T15:16:37.986Z,2.65
2022-10-24T15:19:06.368Z,2.22
2022-10-24T15:21:39.536Z,3.83
2022-10-24T15:24:20.638Z,3.20
2022-10-24T15:26:50.777Z,2.25
2022-10-24T15:29:22.688Z,2.80
2022-10-24T15:31:51.852Z,2.45
2022-10-24T15:34:22.589Z,2.53
2022-10-24T15:36:52.192Z,1.58
2022-10-24T15:39:24.813Z,3.50
2022-10-24T15:41:55.363Z,1.60
2022-10-24T15:44:30.693Z,2.33
2022-10-24T15:46:58.335Z,1.70
2022-10-24T15:49:27.026Z,2.97
2022-10-24T15:51:54.708Z,2.15
2022-10-24T15:54:23.017Z,2.65
2022-10-24T15:56:50.804Z,1.67
2022-10-24T15:59:20.388Z,2.97
2022-10-24T16:01:56.330Z,2.55
2022-10-24T16:04:24.196Z,2.17
2022-10-24T16:06:51.986Z,2.35
2022-10-24T16:09:27.420Z,2.05
2022-10-24T16:11:54.983Z,1.75
2022-10-24T16:14:23.363Z,1.98
2022-10-24T16:16:53.563Z,1.63
2022-10-24T16:19:21.275Z,1.90
2022-10-24T16:21:51.863Z,1.65
2022-10-24T16:24:19.657Z,1.90
2022-10-24T16:26:50.164Z,2.70
2022-10-24T16:29:18.312Z,3.28
2022-10-24T16:31:47.026Z,1.45
2022-10-24T16:34:14.482Z,2.60
2022-10-24T16:36:44.075Z,1.58
2022-10-24T16:39:11.848Z,2.88
2022-10-24T16:41:40.626Z,2.28
2022-10-24T16:44:08.316Z,1.33
2022-10-24T16:46:36.061Z,1.75
2022-10-24T16:51:43.251Z,2.22
2022-10-24T16:54:11.989Z,2.17
2022-10-24T16:56:39.647Z,1.73
2022-10-24T16:59:10.313Z,1.40
2022-10-24T17:01:43.854Z,1.85
2022-10-24T17:04:11.820Z,1.58
2022-10-24T17:06:39.510Z,2.40
2022-10-24T17:09:07.290Z,1.40
2022-10-24T17:11:50.295Z,1.77
2022-10-24T17:14:18.015Z,1.30
2022-10-24T17:16:45.597Z,2.17
2022-10-24T17:19:17.285Z,3.15
2022-10-24T17:21:49.162Z,1.20
2022-10-24T17:24:19.250Z,4.95
2022-10-24T17:26:47.511Z,1.35
2022-10-24T17:29:29.961Z,2.28
2022-10-24T17:31:58.710Z,1.85
2022-10-24T17:34:26.716Z,1.98
2022-10-24T17:37:10.580Z,1.77
2022-10-24T17:39:49.395Z,2.33
2022-10-24T17:42:17.218Z,3.03
2022-10-24T17:44:45.353Z,1.63
2022-10-24T17:47:13.281Z,2.17
2022-10-24T17:49:41.200Z,2.58
2022-10-24T17:52:10.040Z,2.00
2022-10-24T17:54:40.069Z,3.20
2022-10-24T17:57:09.906Z,2.05
2022-10-24T17:59:37.456Z,2.75
2022-10-24T18:02:05.266Z,0.98
2022-10-24T18:04:33.250Z,2.05
2022-10-24T18:07:00.600Z,2.05
2022-10-24T18:09:29.813Z,1.20
2022-10-24T18:11:57.796Z,1.10
2022-10-24T18:14:25.335Z,3.33
2022-10-24T18:16:55.186Z,2.03
2022-10-24T18:19:22.826Z,1.20
2022-10-24T18:21:50.498Z,1.55
2022-10-24T18:24:18.204Z,1.58
2022-10-24T18:26:47.941Z,1.27
2022-10-24T18:29:16.060Z,1.60
2022-10-24T18:31:44.335Z,1.15
2022-10-24T18:34:12.103Z,1.15
2022-10-24T18:36:39.703Z,1.45
2022-10-24T18:39:08.244Z,0.98
2022-10-24T18:41:41.797Z,0.90
2022-10-24T18:44:21.201Z,1.02
2022-10-24T18:46:49.926Z,1.10
2022-10-24T18:49:17.862Z,2.03
2022-10-24T18:52:03.969Z,0.80
2022-10-24T18:54:31.636Z,1.40
2022-10-24T18:57:00.847Z,1.48
2022-10-24T18:59:28.651Z,1.80
2022-10-24T19:01:56.359Z,1.20
2022-10-24T19:04:25.580Z,1.15
2022-10-24T19:06:56.165Z,1.38
2022-10-24T19:09:25.380Z,1.40
2022-10-24T19:11:53.392Z,1.08
2022-10-24T19:14:21.433Z,1.25
2022-10-24T19:16:51.024Z,1.10
2022-10-24T19:19:29.482Z,1.40
2022-10-24T19:21:57.293Z,1.20
2022-10-24T19:24:26.029Z,1.45
2022-10-24T19:26:53.701Z,0.63
2022-10-24T19:29:21.601Z,1.30
2022-10-24T19:31:49.742Z,1.13
2022-10-24T19:34:17.513Z,1.20
2022-10-24T19:36:46.673Z,1.00
2022-10-24T19:39:14.317Z,1.10
2022-10-24T19:41:42.578Z,0.93
2022-10-24T19:44:10.029Z,0.93
2022-10-24T19:46:37.483Z,0.90
2022-10-24T19:49:07.783Z,0.80
2022-10-24T19:51:35.591Z,0.88
2022-10-24T19:54:03.268Z,0.90
2022-10-24T19:56:31.550Z,0.98
2022-10-24T19:58:59.292Z,0.73
2022-10-24T20:01:30.206Z,2.80
2022-10-24T20:04:00.063Z,1.00
2022-10-24T20:06:27.717Z,1.42
2022-10-24T20:08:55.313Z,0.75
2022-10-24T20:11:23.001Z,1.10
2022-10-24T20:13:51.067Z,1.27
2022-10-24T20:16:18.642Z,1.00
2022-10-24T20:18:46.267Z,0.60
2022-10-24T20:21:17.802Z,1.00
2022-10-24T20:23:47.234Z,0.65
2022-10-24T20:26:18.231Z,1.00
2022-10-24T20:28:48.608Z,1.00
2022-10-24T20:31:24.966Z,1.05
2022-10-24T20:33:52.980Z,1.20
2022-10-24T20:36:23.722Z,0.98
2022-10-24T20:38:51.845Z,0.88
2022-10-24T20:41:19.744Z,1.30
2022-10-24T20:43:47.301Z,0.95
2022-10-24T20:46:15.217Z,1.00
2022-10-24T20:48:43.002Z,1.40
2022-10-24T20:51:12.050Z,0.98
2022-10-24T20:53:39.797Z,1.08
2022-10-24T20:56:12.278Z,1.05
2022-10-24T20:58:41.587Z,1.00
2022-10-24T21:01:14.436Z,0.93
2022-10-24T21:03:42.187Z,1.00
2022-10-24T21:06:27.522Z,0.80
2022-10-24T21:08:57.326Z,1.10
2022-10-24T21:11:27.996Z,0.90
2022-10-24T21:14:00.691Z,1.17
2022-10-24T21:16:28.652Z,1.05
2022-10-24T21:18:56.440Z,0.88
2022-10-24T21:21:24.623Z,0.90
2022-10-24T21:23:52.737Z,1.08
2022-10-24T21:26:20.398Z,1.20
2022-10-24T21:28:48.166Z,1.00
2022-10-24T21:31:18.541Z,0.95
2022-10-24T21:33:46.166Z,0.73
2022-10-24T21:36:22.897Z,1.08
2022-10-24T21:38:58.087Z,0.90
2022-10-24T21:41:26.579Z,1.13
2022-10-24T21:43:54.282Z,0.90
2022-10-24T21:46:23.856Z,1.10
2022-10-24T21:48:52.209Z,0.85
2022-10-24T21:51:26.185Z,1.67
2022-10-24T21:53:55.034Z,1.00
2022-10-24T21:56:23.578Z,1.15
2022-10-24T21:58:56.764Z,0.70
2022-10-24T22:01:26.011Z,0.77
2022-10-24T22:03:54.427Z,1.45
2022-10-24T22:06:22.092Z,1.05
2022-10-24T22:08:50.419Z,0.95
2022-10-24T22:11:26.209Z,1.17
2022-10-24T22:13:53.867Z,0.95
2022-10-24T22:16:23.683Z,1.15
2022-10-24T22:18:51.655Z,1.13
2022-10-24T22:21:30.115Z,1.45
2022-10-24T22:24:02.724Z,1.05
2022-10-24T22:26:31.166Z,0.88
2022-10-24T22:28:59.900Z,0.80
2022-10-24T22:31:28.199Z,1.13
2022-10-24T22:33:57.070Z,0.90
2022-10-24T22:36:45.434Z,1.05
2022-10-24T22:39:16.068Z,1.50
2022-10-24T22:41:44.355Z,1.20
2022-10-24T22:44:13.511Z,1.25
2022-10-24T22:47:08.453Z,1.30
2022-10-24T22:49:47.999Z,1.02
2022-10-24T22:52:15.607Z,0.98
2022-10-24T22:54:43.700Z,1.30
2022-10-24T22:57:11.435Z,0.80
2022-10-24T22:59:39.346Z,0.82
2022-10-24T23:02:25.363Z,1.00
2022-10-24T23:04:56.191Z,1.35
2022-10-24T23:07:30.923Z,1.00
2022-10-24T23:09:58.518Z,0.73
2022-10-24T23:12:26.177Z,0.95
2022-10-24T23:14:54.368Z,1.35
2022-10-24T23:17:30.056Z,1.02
2022-10-24T23:19:57.833Z,1.85
2022-10-24T23:22:31.016Z,0.70
2022-10-24T23:25:00.761Z,1.02
2022-10-24T23:27:35.268Z,1.27
2022-10-24T23:30:07.969Z,0.85
2022-10-24T23:32:38.755Z,1.50
2022-10-24T23:35:06.775Z,0.70
2022-10-24T23:37:34.736Z,0.70
2022-10-24T23:40:12.271Z,0.90
2022-10-24T23:42:39.901Z,1.00
2022-10-24T23:45:12.210Z,0.90
2022-10-24T23:47:46.158Z,1.00
2022-10-24T23:50:23.832Z,1.02
2022-10-24T23:53:16.219Z,0.90
2022-10-24T23:55:43.903Z,1.00
2022-10-24T23:58:14.394Z,1.17
